Terminal Aerodrome Forecast
Issued by NWS

Home | Current Version | Previous Version | Text Only | Print | Product List | Glossary On
Versions: 1 2 3 4 5 6 7 8 9 10 11 12 13 14 15 16 17 18 19 20 21 22 23 24 25 26 27 28 29 30 31 32 33 34 35 36 37 38 39 40 41 42 43 44 45 46 47 48 49 50
000
FTUS44 KHGX 190724 AAB
TAFIAH
TAF AMD
KIAH 190724Z 1907/2012 VRB04KT P6SM VCSH SCT007 BKN250
      TEMPO 1907/1910 -RA BKN007
     FM191000 VRB04KT P6SM VCSH SCT007 SCT015 BKN250
     FM191500 12006KT P6SM VCSH FEW007 SCT020 BKN035
     FM192100 12008KT P6SM SCT025 BKN060
     FM200200 08005KT P6SM SCT030 BKN100=

USA.gov is the U.S. government's official web portal to all federal, state and local government web resources and services.